Saint Vincent, MN (56755)

11:57 AM CDT on September 04, 2015 (GMT -0500)
Hallock Municipal | | Change Station
CLOSE
Current Station
Airport
Location: Hallock,
Elevation: 820 ft
Nearby Weather Stations

Elev 820 ft 48.75 °N, 96.94 °W | Updated 3 minutes ago

Overcast
Overcast
75 °F
Feels Like 75 °F
N
9
Wind Variable Wind from East

Today
High -- | Low -- °F
--% Chance of Precip.
Yesterday
High -- | Low -- °F
Precip. -- in
6:49 AM 8:05 PM
Waning Gibbous, 58% visible
Pressure 29.79 in
Visibility 7.0 miles
Clouds Overcast 1900 ft
Dew Point 73 °F
Humidity 94%
Rainfall 0.05 in
Snow Depth Not available.
UV 2 out of 12
Pollen 11.60 out of 12
Air Quality Not available.
Flu Activity Not available.
METAR KHCO 041654Z AUTO 08008KT 7SM VCTSRA OVC019 24/23 A2979 RMK AO2 P0005 LTG DSNT S THRU W
Pressure 29.79 in
Visibility 7.0 miles
Clouds Overcast 1900 ft
Dew Point 73 °F
Humidity 94%
Rainfall 0.05 in
Snow Depth Not available.
UV 2 out of 12
Pollen 11.60 out of 12
Air Quality Not available.
Flu Activity Not available.
METAR KHCO 041654Z AUTO 08008KT 7SM VCTSRA OVC019 24/23 A2979 RMK AO2 P0005 LTG DSNT S THRU W

10-Day Weather Forecast

×

Almanac

Astronomy

Sep. 04, 2015 Rise Set
Actual Time
Civil Twilight
Nautical Twilight
Astronomical Twilight
Moon
Length of Visible Light
Length of Day
Tomorrow will be .
, % of the Moon is Illuminated

Today's Extremes

State Highs State Lows

Community

WunderPhotos

Upload Photos

1,852,226 photos uploaded!

WunderBlogs® & News

Nearby

Air Quality

  Air Quality AQ Index Pollutant
Not available.

Snow Depth

Station Depth Elevation

Earthquake Activity

City Distance Mag. Time & Date
Minimum magnitude displayed is 2.5.

Coastal Water Temperatures

Place Temperature

Stations

Nearby Weather Stations

Station Location Temp. Windchill Dew Point Humidity Wind Precip. Elev Updated Type